Terminal Aerodrome Forecast
Issued by NWS

Home | Current Version | Previous Version | Text Only | Print | Product List | Glossary On
Versions: 1 2 3 4 5 6 7 8 9 10 11 12 13 14 15 16 17 18 19 20 21 22 23 24
694
FTUS43 KICT 261724
TAFCNU
TAF
KCNU 261724Z 2618/2718 20006KT P6SM OVC010
     FM262000 21009KT P6SM SCT035 BKN250
     FM262300 08013KT P6SM VCTS SCT035 BKN050CB
     FM270300 08014G20KT P6SM VCTS SCT015 BKN030CB
     FM270600 02015KT P6SM VCSH SCT009 BKN015
     FM271400 01014KT P6SM SCT015 BKN080
     FM271700 01015KT P6SM SCT025=

USA.gov is the U.S. government's official web portal to all federal, state and local government web resources and services.